Carneys Point Township, New Jersey
Current Conditions -  °F | °C
As of 8:51 AM on Tuesday 27 Jan 2015 (Local Time) from KILG Reporting Station
Overcast Overcast  
Wind Chill: 20°   Ceiling: 8000
Heat Index: 29°   Visibility: 10mi
Dew Point: 22°   Wind: 10mph
Humidity: 75%   Direction: 330°NNW
Pressure: 29.77"   Gusts: NA
Location:  39.6981°N, 75.4502°W
Report Text: KILG 271351Z 33009KT 10SM FEW038 SCT060 OVC080 M02/M06 A2977 RMK AO2 SLP080 T10171056
Loading
Personal Weather Stations






























Interactive Weather Map New forecast layout! Learn more

10-Day Weather Forecast

Advertisements
Track Severe Weather on mobile